createdAt,value
2024-01-20T00:00:35.932Z,3.53
2024-01-20T00:03:05.888Z,2.58
2024-01-20T00:05:35.320Z,4.78
2024-01-20T00:08:06.986Z,2.33
2024-01-20T00:10:36.979Z,2.55
2024-01-20T00:13:07.747Z,2.33
2024-01-20T00:15:37.830Z,2.45
2024-01-20T00:18:07.659Z,0.52
2024-01-20T00:20:37.250Z,1.10
2024-01-20T00:23:08.830Z,0.73
2024-01-20T00:25:38.557Z,0.63
2024-01-20T00:28:08.289Z,0.30
2024-01-20T00:30:37.772Z,1.13
2024-01-20T00:33:10.364Z,0.93
2024-01-20T00:35:43.922Z,1.67
2024-01-20T00:38:15.000Z,0.32
2024-01-20T00:40:44.585Z,1.98
2024-01-20T00:43:13.967Z,1.38
2024-01-20T00:45:43.495Z,2.42
2024-01-20T00:48:12.842Z,1.95
2024-01-20T00:50:42.019Z,1.88
2024-01-20T00:53:11.856Z,2.17
2024-01-20T00:55:42.738Z,1.73
2024-01-20T00:58:12.714Z,1.88
2024-01-20T01:00:41.935Z,1.23
2024-01-20T01:03:11.475Z,1.67
2024-01-20T01:05:40.858Z,1.52
2024-01-20T01:08:10.248Z,1.27
2024-01-20T01:10:39.276Z,1.52
2024-01-20T01:13:10.349Z,0.88
2024-01-20T01:15:39.688Z,3.92
2024-01-20T01:18:09.238Z,2.60
2024-01-20T01:20:38.498Z,3.53
2024-01-20T01:23:08.571Z,3.67
2024-01-20T01:25:38.003Z,2.42
2024-01-20T01:28:07.564Z,0.90
2024-01-20T01:30:38.225Z,1.25
2024-01-20T01:33:07.895Z,0.80
2024-01-20T01:35:37.672Z,1.05
2024-01-20T01:38:06.886Z,3.08
2024-01-20T01:40:36.266Z,2.58
2024-01-20T01:43:06.125Z,1.10
2024-01-20T01:45:35.857Z,1.45
2024-01-20T01:48:08.150Z,0.75
2024-01-20T01:50:38.860Z,1.30
2024-01-20T01:53:08.629Z,0.75
2024-01-20T01:55:38.192Z,1.25
2024-01-20T01:58:08.929Z,1.75
2024-01-20T02:00:38.933Z,2.13
2024-01-20T02:03:11.356Z,2.78
2024-01-20T02:05:40.787Z,1.42
2024-01-20T02:08:11.005Z,1.10
2024-01-20T02:10:42.356Z,1.02
2024-01-20T02:13:13.062Z,1.48
2024-01-20T02:15:42.920Z,1.90
2024-01-20T02:18:13.958Z,1.17
2024-01-20T02:20:43.449Z,2.05
2024-01-20T02:23:14.295Z,0.90
2024-01-20T02:25:43.576Z,1.33
2024-01-20T02:28:13.387Z,0.90
2024-01-20T02:30:43.325Z,1.25
2024-01-20T02:33:12.616Z,1.48
2024-01-20T02:35:41.855Z,1.33
2024-01-20T02:38:11.236Z,0.93
2024-01-20T02:40:42.136Z,1.85
2024-01-20T02:43:11.480Z,2.28
2024-01-20T02:45:40.932Z,0.88
2024-01-20T02:48:14.851Z,1.48
2024-01-20T02:50:45.033Z,1.30
2024-01-20T02:53:14.636Z,2.17
2024-01-20T02:55:45.506Z,1.10
2024-01-20T02:58:14.872Z,1.50
2024-01-20T03:00:44.198Z,2.70
2024-01-20T03:03:13.919Z,1.30
2024-01-20T03:05:43.388Z,1.33
2024-01-20T03:08:12.875Z,1.48
2024-01-20T03:10:41.991Z,0.60
2024-01-20T03:13:12.903Z,1.52
2024-01-20T03:15:42.448Z,0.75
2024-01-20T03:18:12.534Z,1.23
2024-01-20T03:20:41.964Z,1.58
2024-01-20T03:23:11.167Z,2.38
2024-01-20T03:25:40.309Z,2.08
2024-01-20T03:28:09.518Z,1.05
2024-01-20T03:30:40.547Z,0.40
2024-01-20T03:33:10.199Z,2.03
2024-01-20T03:35:39.461Z,1.25
2024-01-20T03:38:08.599Z,1.30
2024-01-20T03:40:37.803Z,0.57
2024-01-20T03:43:07.148Z,1.02
2024-01-20T03:45:36.690Z,0.85
2024-01-20T03:48:08.429Z,0.98
2024-01-20T03:50:38.748Z,0.93
2024-01-20T03:53:08.432Z,0.73
2024-01-20T03:55:38.108Z,2.72
2024-01-20T03:58:07.856Z,1.00
2024-01-20T04:00:37.320Z,1.67
2024-01-20T04:03:08.516Z,1.30
2024-01-20T04:05:38.399Z,3.67
2024-01-20T04:08:08.064Z,2.03
2024-01-20T04:10:37.693Z,4.38
2024-01-20T04:13:06.928Z,1.85
2024-01-20T04:15:36.338Z,1.50
2024-01-20T04:18:06.433Z,1.25
2024-01-20T04:20:37.485Z,1.08
2024-01-20T04:23:07.067Z,0.85
2024-01-20T04:25:36.784Z,2.10
2024-01-20T04:28:06.844Z,1.35
2024-01-20T04:30:36.312Z,1.67
2024-01-20T04:33:06.792Z,1.55
2024-01-20T04:35:37.671Z,1.77
2024-01-20T04:38:07.070Z,0.73
2024-01-20T04:40:36.684Z,1.35
2024-01-20T04:43:06.182Z,1.33
2024-01-20T04:45:35.448Z,2.22
2024-01-20T04:48:05.293Z,1.75
2024-01-20T04:50:34.538Z,1.70
2024-01-20T04:53:05.838Z,0.70
2024-01-20T04:55:35.443Z,0.55
2024-01-20T04:58:04.995Z,0.90
2024-01-20T05:00:34.390Z,0.55
2024-01-20T05:03:04.025Z,0.30
2024-01-20T05:05:34.498Z,0.50
2024-01-20T05:08:05.651Z,1.02
2024-01-20T05:10:35.484Z,0.85
2024-01-20T05:13:05.475Z,0.50
2024-01-20T05:15:35.067Z,0.75
2024-01-20T05:18:04.580Z,0.73
2024-01-20T05:20:34.164Z,0.57
2024-01-20T05:23:05.176Z,1.40
2024-01-20T05:25:34.864Z,0.40
2024-01-20T05:28:04.005Z,0.30
2024-01-20T05:30:33.736Z,0.55
2024-01-20T05:33:03.268Z,0.38
2024-01-20T05:35:32.549Z,0.40
2024-01-20T05:38:02.116Z,0.30
2024-01-20T05:40:33.486Z,0.82
2024-01-20T05:43:02.530Z,0.50
2024-01-20T05:45:31.606Z,0.85
2024-01-20T05:48:01.066Z,1.05
2024-01-20T05:50:30.848Z,0.52
2024-01-20T05:53:00.088Z,0.52
2024-01-20T05:55:32.470Z,1.10
2024-01-20T05:58:01.659Z,0.20
2024-01-20T06:00:31.007Z,0.20
2024-01-20T06:03:00.183Z,0.50
2024-01-20T06:05:29.560Z,0.20
2024-01-20T06:07:58.799Z,0.30
2024-01-20T06:10:28.221Z,2.05
2024-01-20T06:12:58.798Z,0.93
2024-01-20T06:15:28.655Z,0.20
2024-01-20T06:17:58.410Z,0.30
2024-01-20T06:20:27.641Z,0.85
2024-01-20T06:22:57.253Z,0.40
2024-01-20T06:25:26.535Z,0.45
2024-01-20T06:27:56.356Z,0.93
2024-01-20T06:30:27.355Z,0.30
2024-01-20T06:32:56.763Z,1.65
2024-01-20T06:35:26.074Z,0.20
2024-01-20T06:37:55.807Z,0.35
2024-01-20T06:40:25.557Z,0.75
2024-01-20T06:42:54.866Z,0.40
2024-01-20T06:45:24.407Z,1.65
2024-01-20T06:47:55.484Z,0.30
2024-01-20T06:50:24.733Z,0.30
2024-01-20T06:52:54.247Z,0.20
2024-01-20T06:55:23.526Z,0.45
2024-01-20T06:57:52.654Z,0.20
2024-01-20T07:00:22.496Z,1.27
2024-01-20T07:02:52.225Z,0.52
2024-01-20T07:05:23.574Z,0.77
2024-01-20T07:07:53.299Z,0.20
2024-01-20T07:10:22.959Z,1.48
2024-01-20T07:12:52.244Z,0.30
2024-01-20T07:15:21.863Z,0.52
2024-01-20T07:17:51.235Z,0.70
2024-01-20T07:20:20.811Z,0.30
2024-01-20T07:22:52.681Z,0.22
2024-01-20T07:25:22.198Z,0.30
2024-01-20T07:27:51.786Z,1.20
2024-01-20T07:30:21.880Z,2.45
2024-01-20T07:32:51.816Z,1.48
2024-01-20T07:35:21.319Z,1.17
2024-01-20T07:37:52.665Z,0.68
2024-01-20T07:40:22.396Z,0.30
2024-01-20T07:42:54.152Z,0.65
2024-01-20T07:45:24.020Z,0.20
2024-01-20T07:47:53.604Z,3.40
2024-01-20T07:50:23.154Z,0.30
2024-01-20T07:52:54.252Z,0.20
2024-01-20T07:55:23.333Z,0.20
2024-01-20T07:57:52.733Z,0.30
2024-01-20T08:00:22.852Z,1.05
2024-01-20T08:02:52.441Z,0.90
2024-01-20T08:05:21.824Z,0.82
2024-01-20T08:07:50.834Z,0.40
2024-01-20T08:10:21.613Z,0.30
2024-01-20T08:12:52.599Z,1.55
2024-01-20T08:15:22.349Z,0.60
2024-01-20T08:17:52.130Z,1.17
2024-01-20T08:20:21.566Z,0.28
2024-01-20T08:22:50.960Z,0.90
2024-01-20T08:25:22.105Z,0.88
2024-01-20T08:27:51.477Z,0.38
2024-01-20T08:30:21.568Z,0.82
2024-01-20T08:32:51.024Z,1.98
2024-01-20T08:35:20.392Z,1.90
2024-01-20T08:37:49.690Z,2.85
2024-01-20T08:40:19.011Z,2.35
2024-01-20T08:42:50.385Z,0.60
2024-01-20T08:45:19.852Z,1.95
2024-01-20T08:47:49.075Z,1.15
2024-01-20T08:50:18.538Z,1.00
2024-01-20T08:52:48.201Z,1.13
2024-01-20T08:55:18.695Z,0.40
2024-01-20T08:57:48.159Z,1.63
2024-01-20T09:00:19.977Z,0.85
2024-01-20T09:02:49.618Z,1.55
2024-01-20T09:05:21.074Z,0.95
2024-01-20T09:07:50.931Z,0.52
2024-01-20T09:10:20.189Z,1.40
2024-01-20T09:12:49.480Z,0.88
2024-01-20T09:15:20.962Z,0.80
2024-01-20T09:17:50.603Z,0.60
2024-01-20T09:20:20.858Z,0.73
2024-01-20T09:22:50.397Z,0.50
2024-01-20T09:25:19.399Z,0.60
2024-01-20T09:27:49.214Z,0.40
2024-01-20T09:30:22.000Z,0.20
2024-01-20T09:32:52.253Z,1.05
2024-01-20T09:35:21.952Z,0.63
2024-01-20T09:37:51.747Z,0.73
2024-01-20T09:40:21.110Z,0.70
2024-01-20T09:42:51.035Z,0.75
2024-01-20T09:45:22.421Z,0.52
2024-01-20T09:47:52.219Z,0.77
2024-01-20T09:50:21.992Z,0.73
2024-01-20T09:52:59.832Z,0.95
2024-01-20T09:55:29.910Z,1.05
2024-01-20T09:58:00.760Z,1.23
2024-01-20T10:00:33.338Z,0.52
2024-01-20T10:03:06.709Z,0.47
2024-01-20T10:05:37.122Z,1.20
2024-01-20T10:08:07.599Z,1.45
2024-01-20T10:10:37.392Z,0.55
2024-01-20T10:13:06.494Z,0.98
2024-01-20T10:15:37.799Z,1.13
2024-01-20T10:18:10.270Z,0.73
2024-01-20T10:20:39.988Z,1.17
2024-01-20T10:23:10.136Z,1.40
2024-01-20T10:25:39.846Z,0.85
2024-01-20T10:28:10.077Z,2.55
2024-01-20T10:30:41.643Z,1.20
2024-01-20T10:33:11.734Z,0.88
2024-01-20T10:35:41.184Z,0.68
2024-01-20T10:38:13.420Z,1.38
2024-01-20T10:40:44.530Z,0.43
2024-01-20T10:43:16.821Z,0.77
2024-01-20T10:45:54.466Z,0.40
2024-01-20T10:48:28.630Z,0.30
2024-01-20T10:51:00.939Z,1.50
2024-01-20T10:53:30.516Z,0.20
2024-01-20T10:56:01.351Z,1.65
2024-01-20T10:58:35.575Z,1.73
2024-01-20T11:01:07.136Z,1.27
2024-01-20T11:03:37.178Z,1.02
2024-01-20T11:06:07.661Z,0.75
2024-01-20T11:08:37.118Z,0.70
2024-01-20T11:11:11.180Z,0.77
2024-01-20T11:13:40.443Z,0.35
2024-01-20T11:16:21.492Z,0.60
2024-01-20T11:18:51.005Z,1.58
2024-01-20T11:21:21.202Z,0.93
2024-01-20T11:24:00.937Z,0.75
2024-01-20T11:26:34.706Z,1.30
2024-01-20T11:29:05.949Z,0.65
2024-01-20T11:31:38.043Z,1.17
2024-01-20T11:34:08.015Z,1.00
2024-01-20T11:36:37.577Z,1.27
2024-01-20T11:39:07.468Z,1.52
2024-01-20T11:41:36.944Z,0.90
2024-01-20T11:44:06.237Z,0.40
2024-01-20T11:46:37.729Z,0.20
2024-01-20T11:49:07.301Z,0.45
2024-01-20T11:51:36.500Z,0.40
2024-01-20T11:54:08.232Z,0.20
2024-01-20T11:56:38.978Z,0.20
2024-01-20T11:59:08.528Z,0.22
2024-01-20T12:01:40.634Z,1.65
2024-01-20T12:04:10.029Z,0.22
2024-01-20T12:06:39.892Z,0.75
2024-01-20T12:09:09.186Z,0.20
2024-01-20T12:11:38.368Z,0.20
2024-01-20T12:14:09.712Z,1.92
2024-01-20T12:16:41.065Z,1.48
2024-01-20T12:19:10.355Z,0.40
2024-01-20T12:21:39.654Z,1.00
2024-01-20T12:24:11.863Z,1.10
2024-01-20T12:26:43.866Z,0.57
2024-01-20T12:29:13.084Z,2.13
2024-01-20T12:31:44.317Z,0.80
2024-01-20T12:34:14.327Z,0.30
2024-01-20T12:36:43.671Z,2.53
2024-01-20T12:39:12.812Z,0.88
2024-01-20T12:41:42.160Z,0.38
2024-01-20T12:44:11.505Z,2.15
2024-01-20T12:46:40.741Z,1.85
2024-01-20T12:49:11.873Z,2.22
2024-01-20T12:51:41.456Z,0.77
2024-01-20T12:54:11.320Z,0.22
2024-01-20T12:56:41.114Z,0.32
2024-01-20T12:59:10.560Z,0.20
2024-01-20T13:01:39.754Z,0.65
2024-01-20T13:04:10.860Z,2.03
2024-01-20T13:06:40.490Z,1.48
2024-01-20T13:09:11.663Z,2.03
2024-01-20T13:11:41.514Z,0.93
2024-01-20T13:14:11.084Z,0.40
2024-01-20T13:16:40.313Z,1.75
2024-01-20T13:19:11.081Z,1.38
2024-01-20T13:21:40.864Z,0.35
2024-01-20T13:24:10.693Z,0.50
2024-01-20T13:26:39.974Z,1.30
2024-01-20T13:29:09.912Z,0.20
2024-01-20T13:31:39.181Z,0.75
2024-01-20T13:34:08.987Z,1.27
2024-01-20T13:36:40.391Z,2.05
2024-01-20T13:39:10.022Z,1.33
2024-01-20T13:41:39.258Z,2.53
2024-01-20T13:44:08.787Z,1.83
2024-01-20T13:46:37.892Z,1.27
2024-01-20T13:49:08.397Z,1.02
2024-01-20T13:51:40.373Z,1.80
2024-01-20T13:54:09.837Z,2.47
2024-01-20T13:56:39.523Z,2.40
2024-01-20T13:59:08.768Z,2.00
2024-01-20T14:01:38.018Z,2.28
2024-01-20T14:04:07.307Z,1.48
2024-01-20T14:06:36.699Z,2.50
2024-01-20T14:09:11.348Z,2.38
2024-01-20T14:11:40.626Z,3.03
2024-01-20T14:14:10.020Z,4.07
2024-01-20T14:16:39.563Z,4.35
2024-01-20T14:19:09.347Z,2.13
2024-01-20T14:21:38.889Z,1.35
2024-01-20T14:24:09.962Z,1.35
2024-01-20T14:26:44.328Z,1.25
2024-01-20T14:29:13.812Z,1.40
2024-01-20T14:31:50.395Z,4.03
2024-01-20T14:34:22.065Z,3.60
2024-01-20T14:36:52.692Z,3.20
2024-01-20T14:39:28.032Z,2.60
2024-01-20T14:41:57.300Z,3.40
2024-01-20T14:44:31.263Z,2.22
2024-01-20T14:47:00.589Z,2.78
2024-01-20T14:49:31.687Z,1.38
2024-01-20T14:52:01.188Z,1.80
2024-01-20T14:54:32.489Z,3.45
2024-01-20T14:57:02.137Z,6.85
2024-01-20T14:59:32.270Z,6.00
2024-01-20T15:02:04.650Z,5.78
2024-01-20T15:04:35.150Z,3.15
2024-01-20T15:07:07.137Z,2.67
2024-01-20T15:09:39.295Z,4.93
2024-01-20T15:12:09.258Z,2.92
2024-01-20T15:14:38.624Z,3.33
2024-01-20T15:17:08.694Z,1.15
2024-01-20T15:19:39.593Z,3.65
2024-01-20T15:22:09.478Z,1.30
2024-01-20T15:24:40.746Z,2.92
2024-01-20T15:27:10.210Z,3.13
2024-01-20T15:29:39.821Z,3.05
2024-01-20T15:32:09.514Z,3.05
2024-01-20T15:34:39.237Z,9.38
2024-01-20T15:37:08.474Z,13.75
2024-01-20T15:39:37.999Z,4.18
2024-01-20T15:42:08.938Z,3.95
2024-01-20T15:44:39.307Z,1.42
2024-01-20T15:47:10.057Z,3.28
2024-01-20T15:49:40.022Z,4.95
2024-01-20T15:52:09.341Z,2.53
2024-01-20T15:54:38.573Z,3.03
2024-01-20T15:57:10.571Z,2.67
2024-01-20T15:59:39.913Z,3.05
2024-01-20T16:02:09.600Z,4.57
2024-01-20T16:04:38.778Z,4.05
2024-01-20T16:07:12.434Z,1.02
2024-01-20T16:09:43.994Z,3.17
2024-01-20T16:12:14.712Z,1.77
2024-01-20T16:14:43.960Z,1.58
2024-01-20T16:17:13.684Z,1.85
2024-01-20T16:19:43.203Z,2.63
2024-01-20T16:22:12.680Z,4.90
2024-01-20T16:24:41.957Z,6.13
2024-01-20T16:27:11.367Z,4.40
2024-01-20T16:29:42.014Z,5.43
2024-01-20T16:32:13.177Z,3.05
2024-01-20T16:34:42.814Z,4.50
2024-01-20T16:37:11.975Z,3.03
2024-01-20T16:39:41.509Z,4.68
2024-01-20T16:42:11.306Z,5.95
2024-01-20T16:44:42.443Z,6.95
2024-01-20T16:47:12.123Z,7.15
2024-01-20T16:49:41.507Z,6.47
2024-01-20T16:52:11.401Z,4.93
2024-01-20T16:54:40.560Z,5.68
2024-01-20T16:57:11.459Z,2.15
2024-01-20T16:59:42.709Z,5.03
2024-01-20T17:02:12.118Z,4.22
2024-01-20T17:04:41.617Z,2.92
2024-01-20T17:07:11.200Z,2.55
2024-01-20T17:09:43.383Z,1.15
2024-01-20T17:12:12.894Z,1.63
2024-01-20T17:14:43.848Z,10.45
2024-01-20T17:17:13.865Z,5.45
2024-01-20T17:19:43.386Z,2.55
2024-01-20T17:22:13.138Z,1.33
2024-01-20T17:24:42.471Z,0.45
2024-01-20T17:27:11.745Z,1.60
2024-01-20T17:29:42.929Z,1.05
2024-01-20T17:32:12.409Z,0.63
2024-01-20T17:34:42.268Z,0.30
2024-01-20T17:37:12.119Z,1.25
2024-01-20T17:39:42.091Z,0.82
2024-01-20T17:42:11.324Z,0.40
2024-01-20T17:44:40.671Z,0.20
2024-01-20T17:47:12.306Z,0.50
2024-01-20T17:49:41.892Z,0.45
2024-01-20T17:52:11.583Z,0.40
2024-01-20T17:54:40.715Z,1.20
2024-01-20T17:57:09.989Z,0.49
2024-01-20T17:59:39.527Z,0.57
2024-01-20T18:02:08.814Z,0.30
2024-01-20T18:04:41.202Z,0.28
2024-01-20T18:07:11.431Z,0.40
2024-01-20T18:09:40.957Z,1.63
2024-01-20T18:12:10.764Z,0.20
2024-01-20T18:14:40.097Z,0.28
2024-01-20T18:17:10.322Z,0.50
2024-01-20T18:19:41.025Z,0.57
2024-01-20T18:22:10.546Z,0.52
2024-01-20T18:24:41.776Z,0.45
2024-01-20T18:27:10.952Z,0.38
2024-01-20T18:29:40.308Z,0.35
2024-01-20T18:32:09.611Z,0.20
2024-01-20T18:34:41.040Z,0.43
2024-01-20T18:37:10.530Z,0.25
2024-01-20T18:39:40.065Z,0.40
2024-01-20T18:42:09.201Z,0.30
2024-01-20T18:44:38.794Z,0.40
2024-01-20T18:47:09.819Z,6.93
2024-01-20T18:49:40.746Z,0.55
2024-01-20T18:52:10.652Z,0.77
2024-01-20T18:54:40.488Z,0.88
2024-01-20T18:57:10.087Z,0.30
2024-01-20T18:59:40.248Z,0.52
2024-01-20T19:02:09.513Z,0.30
2024-01-20T19:04:39.907Z,2.85
2024-01-20T19:07:11.179Z,0.82
2024-01-20T19:09:40.922Z,1.50
2024-01-20T19:12:10.970Z,0.75
2024-01-20T19:14:40.594Z,2.47
2024-01-20T19:17:16.156Z,3.15
2024-01-20T19:19:45.734Z,1.95
2024-01-20T19:22:16.683Z,0.57
2024-01-20T19:24:46.054Z,1.33
2024-01-20T19:27:15.967Z,1.75
2024-01-20T19:29:45.649Z,1.08
2024-01-20T19:32:16.162Z,1.05
2024-01-20T19:34:45.424Z,0.60
2024-01-20T19:37:17.429Z,1.23
2024-01-20T19:39:46.670Z,0.82
2024-01-20T19:42:16.079Z,1.00
2024-01-20T19:44:45.327Z,1.38
2024-01-20T19:47:14.834Z,2.05
2024-01-20T19:49:45.356Z,1.73
2024-01-20T19:52:16.663Z,1.08
2024-01-20T19:54:46.444Z,0.20
2024-01-20T19:57:17.149Z,1.58
2024-01-20T19:59:46.465Z,1.52
2024-01-20T20:02:15.743Z,0.60
2024-01-20T20:04:46.415Z,0.50
2024-01-20T20:07:18.853Z,1.10
2024-01-20T20:09:49.850Z,0.40
2024-01-20T20:12:19.120Z,0.40
2024-01-20T20:14:48.563Z,0.73
2024-01-20T20:17:17.907Z,0.77
2024-01-20T20:19:47.311Z,0.60
2024-01-20T20:22:18.344Z,2.30
2024-01-20T20:24:47.884Z,1.40
2024-01-20T20:27:19.785Z,1.38
2024-01-20T20:29:49.335Z,0.90
2024-01-20T20:32:22.017Z,2.10
2024-01-20T20:34:51.831Z,1.60
2024-01-20T20:37:23.053Z,0.90
2024-01-20T20:39:53.096Z,3.70
2024-01-20T20:42:23.317Z,6.53
2024-01-20T20:44:52.785Z,5.60
2024-01-20T20:47:22.507Z,5.32
2024-01-20T20:50:00.630Z,2.63
2024-01-20T20:52:32.554Z,3.17
2024-01-20T20:55:02.432Z,7.40
2024-01-20T20:57:31.971Z,4.03
2024-01-20T21:00:01.409Z,4.28
2024-01-20T21:02:31.020Z,2.58
2024-01-20T21:05:00.434Z,0.30
2024-01-20T21:07:32.154Z,0.30
2024-01-20T21:10:04.492Z,0.30
2024-01-20T21:12:34.311Z,0.60
2024-01-20T21:15:03.463Z,0.50
2024-01-20T21:17:35.226Z,0.50
2024-01-20T21:20:04.759Z,0.90
2024-01-20T21:22:33.838Z,0.20
2024-01-20T21:25:05.425Z,0.40
2024-01-20T21:27:34.589Z,1.83
2024-01-20T21:30:05.419Z,1.60
2024-01-20T21:32:34.905Z,1.33
2024-01-20T21:35:04.606Z,3.10
2024-01-20T21:37:33.839Z,1.55
2024-01-20T21:40:06.434Z,3.53
2024-01-20T21:42:36.093Z,3.70
2024-01-20T21:45:06.163Z,1.95
2024-01-20T21:47:35.454Z,1.98
2024-01-20T21:50:05.723Z,3.17
2024-01-20T21:52:35.219Z,2.30
2024-01-20T21:55:06.885Z,2.10
2024-01-20T21:57:36.477Z,4.45
2024-01-20T22:00:08.581Z,7.72
2024-01-20T22:02:41.707Z,4.35
2024-01-20T22:05:11.598Z,4.40
2024-01-20T22:07:41.438Z,5.78
2024-01-20T22:10:12.993Z,2.10
2024-01-20T22:12:42.382Z,3.30
2024-01-20T22:15:12.102Z,1.50
2024-01-20T22:17:41.794Z,2.25
2024-01-20T22:20:12.674Z,1.02
2024-01-20T22:22:42.154Z,1.92
2024-01-20T22:25:14.632Z,3.38
2024-01-20T22:27:44.162Z,1.95
2024-01-20T22:30:14.810Z,2.80
2024-01-20T22:32:44.460Z,2.25
2024-01-20T22:35:14.004Z,4.43
2024-01-20T22:37:43.367Z,2.67
2024-01-20T22:40:15.728Z,4.93
2024-01-20T22:42:45.407Z,5.55
2024-01-20T22:45:14.944Z,5.93
2024-01-20T22:47:45.456Z,4.20
2024-01-20T22:50:15.897Z,5.57
2024-01-20T22:52:46.341Z,4.32
2024-01-20T22:55:18.229Z,4.15
2024-01-20T22:57:47.783Z,4.93
2024-01-20T23:00:26.993Z,4.40
2024-01-20T23:02:58.438Z,2.42
2024-01-20T23:05:27.786Z,2.42
2024-01-20T23:07:57.208Z,2.17
2024-01-20T23:10:28.054Z,2.60
2024-01-20T23:12:57.529Z,2.90
2024-01-20T23:15:27.028Z,2.08
2024-01-20T23:17:56.544Z,6.13
2024-01-20T23:20:25.944Z,3.25
2024-01-20T23:22:55.386Z,4.20
2024-01-20T23:25:25.816Z,2.00
2024-01-20T23:27:57.779Z,4.90
2024-01-20T23:30:31.786Z,3.53
2024-01-20T23:33:01.876Z,3.58
2024-01-20T23:35:31.932Z,4.35
2024-01-20T23:38:01.295Z,2.55
2024-01-20T23:40:30.698Z,5.55
2024-01-20T23:43:01.906Z,2.55
2024-01-20T23:45:31.008Z,6.72
2024-01-20T23:48:00.692Z,3.80
2024-01-20T23:50:28.798Z,3.10
2024-01-20T23:52:58.393Z,6.15
2024-01-20T23:55:27.621Z,5.18
2024-01-20T23:57:57.031Z,3.28
